createdAt,value
2017-04-28T06:29:09.607Z,1007.6
2017-04-28T06:29:51.495Z,1007.56
2017-04-28T06:30:33.026Z,1007.57
2017-04-28T06:31:14.850Z,1007.6
2017-04-28T06:31:56.928Z,1007.58
2017-04-28T06:32:38.807Z,1007.54
2017-04-28T06:33:20.698Z,1007.56
2017-04-28T06:34:02.295Z,1007.55
2017-04-28T06:34:44.153Z,1007.57
2017-04-28T06:35:25.721Z,1007.59
2017-04-28T06:36:07.386Z,1007.61
2017-04-28T06:36:48.873Z,1007.56
2017-04-28T06:37:30.398Z,1007.59
2017-04-28T06:38:11.910Z,1007.57
2017-04-28T06:38:54.001Z,1007.6
2017-04-28T06:39:35.578Z,1007.61
2017-04-28T06:40:17.254Z,1007.62
2017-04-28T06:40:59.137Z,1007.62
2017-04-28T06:41:41.011Z,1007.58
2017-04-28T06:42:22.607Z,1007.65
2017-04-28T06:43:04.175Z,1007.61
2017-04-28T06:43:46.765Z,1007.59
2017-04-28T06:44:28.515Z,1007.62
2017-04-28T06:45:10.365Z,1007.65
2017-04-28T06:45:52.191Z,1007.65
2017-04-28T06:46:33.979Z,1007.64
2017-04-28T06:47:15.779Z,1007.65
2017-04-28T06:47:57.404Z,1007.64
2017-04-28T06:48:39.293Z,1007.63
2017-04-28T06:49:21.199Z,1007.66
2017-04-28T06:50:02.974Z,1007.65
2017-04-28T06:50:44.813Z,1007.67
2017-04-28T06:51:26.754Z,1007.64
2017-04-28T06:52:08.628Z,1007.65
2017-04-28T06:52:50.433Z,1007.66
2017-04-28T06:53:32.329Z,1007.68
2017-04-28T06:54:14.057Z,1007.66
2017-04-28T06:54:56.958Z,1007.67
2017-04-28T06:55:38.716Z,1007.66
2017-04-28T06:56:20.303Z,1007.66
2017-04-28T06:57:01.289Z,1007.67
2017-04-28T06:57:42.751Z,1007.65
2017-04-28T06:58:23.904Z,1007.65
2017-04-28T06:59:05.283Z,1007.68
2017-04-28T06:59:51.885Z,1007.69
2017-04-28T07:00:33.470Z,1007.66
2017-04-28T07:01:14.108Z,1007.65
2017-04-28T07:01:55.898Z,1007.7
2017-04-28T07:02:37.262Z,1007.67
2017-04-28T07:03:18.629Z,1007.76
2017-04-28T07:04:00.191Z,1007.68
2017-04-28T07:04:41.334Z,1007.66
2017-04-28T07:05:22.781Z,1007.67
2017-04-28T07:06:05.196Z,1007.72
2017-04-28T07:06:46.342Z,1007.74
2017-04-28T07:07:27.894Z,1007.71
2017-04-28T07:08:09.569Z,1007.73
2017-04-28T07:08:51.592Z,1007.77
2017-04-28T07:09:33.400Z,1007.76
2017-04-28T07:10:14.997Z,1007.79
2017-04-28T07:10:56.868Z,1007.84
2017-04-28T07:11:38.716Z,1007.8
2017-04-28T07:12:20.336Z,1007.83
2017-04-28T07:13:01.706Z,1007.78
2017-04-28T07:13:42.958Z,1007.79
2017-04-28T07:14:24.728Z,1007.82
2017-04-28T07:15:08.676Z,1007.8
2017-04-28T07:15:50.457Z,1007.8
2017-04-28T07:16:33.043Z,1007.83
2017-04-28T07:17:14.785Z,1007.8
2017-04-28T07:17:56.144Z,1007.82
2017-04-28T07:18:38.012Z,1007.81
2017-04-28T07:19:19.816Z,1007.78
2017-04-28T07:20:01.599Z,1007.8
2017-04-28T07:20:43.083Z,1007.78
2017-04-28T07:21:24.965Z,1007.8
2017-04-28T07:22:06.937Z,1007.75
2017-04-28T07:22:49.131Z,1007.74
2017-04-28T07:23:30.908Z,1007.77
2017-04-28T07:24:12.794Z,1007.77
2017-04-28T07:24:54.597Z,1007.77
2017-04-28T07:25:36.550Z,1007.83
2017-04-28T07:26:18.228Z,1007.78
2017-04-28T07:27:00.005Z,1007.79
2017-04-28T07:27:41.792Z,1007.83
2017-04-28T07:28:23.564Z,1007.83
2017-04-28T07:29:05.448Z,1007.82
2017-04-28T07:29:46.917Z,1007.77
2017-04-28T07:30:28.799Z,1007.79
2017-04-28T07:31:10.581Z,1007.81
2017-04-28T07:31:52.359Z,1007.78
2017-04-28T07:32:34.138Z,1007.78
2017-04-28T07:33:15.919Z,1007.77
2017-04-28T07:33:57.018Z,1007.79
2017-04-28T07:34:37.689Z,1007.82
2017-04-28T07:35:18.234Z,1007.78
2017-04-28T07:35:58.999Z,1007.74
2017-04-28T07:36:39.593Z,1007.73
2017-04-28T07:37:20.187Z,1007.76
2017-04-28T07:38:00.961Z,1007.75
2017-04-28T07:38:41.950Z,1007.74
2017-04-28T07:39:22.529Z,1007.78
2017-04-28T07:40:03.192Z,1007.73
2017-04-28T07:40:43.917Z,1007.76
2017-04-28T07:41:24.527Z,1007.76
2017-04-28T07:42:05.251Z,1007.75
2017-04-28T07:42:45.967Z,1007.78
2017-04-28T07:43:26.637Z,1007.78
2017-04-28T07:44:07.274Z,1007.79
2017-04-28T07:44:47.885Z,1007.76
2017-04-28T07:45:28.502Z,1007.73
2017-04-28T07:46:09.144Z,1007.73
2017-04-28T07:46:49.717Z,1007.72
2017-04-28T07:47:30.311Z,1007.75
2017-04-28T07:48:10.883Z,1007.76
2017-04-28T07:48:51.549Z,1007.77
2017-04-28T07:49:32.112Z,1007.74
2017-04-28T07:50:12.740Z,1007.74
2017-04-28T07:50:53.367Z,1007.79
2017-04-28T07:51:34.010Z,1007.81
2017-04-28T07:52:14.680Z,1007.83
2017-04-28T07:52:55.314Z,1007.81
2017-04-28T07:53:35.968Z,1007.84
2017-04-28T07:54:16.569Z,1007.84
2017-04-28T07:54:57.231Z,1007.86
2017-04-28T07:55:37.870Z,1007.89
2017-04-28T07:56:18.518Z,1007.84
2017-04-28T07:56:59.188Z,1007.86
2017-04-28T07:57:39.826Z,1007.9
2017-04-28T07:58:20.478Z,1007.87
2017-04-28T07:59:01.137Z,1007.82
2017-04-28T07:59:41.781Z,1007.84
2017-04-28T08:00:22.452Z,1007.86
2017-04-28T08:01:03.092Z,1007.84
2017-04-28T08:01:43.745Z,1007.87
2017-04-28T08:02:24.395Z,1007.87
2017-04-28T08:03:05.046Z,1007.92
2017-04-28T08:03:45.701Z,1007.89
2017-04-28T08:04:26.353Z,1007.87
2017-04-28T08:05:07.009Z,1007.91
2017-04-28T08:05:47.660Z,1007.9
2017-04-28T08:06:28.319Z,1007.89
2017-04-28T08:07:08.964Z,1007.89
2017-04-28T08:07:49.619Z,1007.92
2017-04-28T08:08:30.270Z,1007.92
2017-04-28T08:09:10.925Z,1007.88
2017-04-28T08:09:51.578Z,1007.84
2017-04-28T08:10:32.228Z,1007.82
2017-04-28T08:11:12.780Z,1007.77
2017-04-28T08:11:53.436Z,1007.83
2017-04-28T08:12:34.086Z,1007.76
2017-04-28T08:13:14.749Z,1007.8
2017-04-28T08:13:55.389Z,1007.77
2017-04-28T08:14:36.042Z,1007.78
2017-04-28T08:15:16.699Z,1007.77
2017-04-28T08:15:58.379Z,1007.81
2017-04-28T08:16:39.021Z,1007.83
2017-04-28T08:17:19.674Z,1007.83
2017-04-28T08:18:00.337Z,1007.83
2017-04-28T08:18:40.987Z,1007.84
2017-04-28T08:19:21.544Z,1007.84
2017-04-28T08:20:02.168Z,1007.9
2017-04-28T08:20:42.736Z,1007.88
2017-04-28T08:21:23.312Z,1007.89
2017-04-28T08:22:03.942Z,1007.9
2017-04-28T08:22:44.613Z,1007.87
2017-04-28T08:23:25.189Z,1007.85
2017-04-28T08:24:06.820Z,1007.89
2017-04-28T08:24:47.474Z,1007.85
2017-04-28T08:25:28.102Z,1007.89
2017-04-28T08:26:08.739Z,1007.89
2017-04-28T08:26:49.321Z,1007.9
2017-04-28T08:27:29.993Z,1007.89
2017-04-28T08:28:10.561Z,1007.88
2017-04-28T08:28:51.135Z,1007.91
2017-04-28T08:29:31.766Z,1007.95
2017-04-28T08:30:12.391Z,1007.91
2017-04-28T08:30:53.055Z,1007.91
2017-04-28T08:31:33.700Z,1007.94
2017-04-28T08:32:14.355Z,1007.91
2017-04-28T08:32:55.108Z,1007.95
2017-04-28T08:33:35.855Z,1007.9
2017-04-28T08:34:16.546Z,1007.94
2017-04-28T08:34:57.395Z,1007.9
2017-04-28T08:35:38.048Z,1007.85
2017-04-28T08:36:18.786Z,1007.83
2017-04-28T08:36:59.435Z,1007.83
2017-04-28T08:37:40.087Z,1007.82
2017-04-28T08:38:20.797Z,1007.81
2017-04-28T08:39:01.796Z,1007.82
2017-04-28T08:39:42.352Z,1007.78
2017-04-28T08:40:23.012Z,1007.76
2017-04-28T08:41:03.657Z,1007.77
2017-04-28T08:41:44.232Z,1007.8
2017-04-28T08:42:24.862Z,1007.71
2017-04-28T08:43:05.516Z,1007.75
2017-04-28T08:43:46.074Z,1007.72
2017-04-28T08:44:26.710Z,1007.77
2017-04-28T08:45:08.397Z,1007.73
2017-04-28T08:45:48.971Z,1007.73
2017-04-28T08:46:29.598Z,1007.75
2017-04-28T08:47:10.265Z,1007.76
2017-04-28T08:47:50.851Z,1007.76
2017-04-28T08:48:31.475Z,1007.75
2017-04-28T08:49:12.105Z,1007.76
2017-04-28T08:49:52.674Z,1007.8
2017-04-28T08:50:33.360Z,1007.76
2017-04-28T08:51:13.962Z,1007.78
2017-04-28T08:51:54.544Z,1007.77
2017-04-28T08:52:35.151Z,1007.8
2017-04-28T08:53:15.823Z,1007.82
2017-04-28T08:53:56.390Z,1007.78
2017-04-28T08:54:37.005Z,1007.78
2017-04-28T08:55:18.598Z,1007.81
2017-04-28T08:55:59.194Z,1007.8
2017-04-28T08:56:39.860Z,1007.78
2017-04-28T08:57:20.448Z,1007.77
2017-04-28T08:58:01.104Z,1007.79
2017-04-28T08:58:41.691Z,1007.78
2017-04-28T08:59:22.359Z,1007.83
2017-04-28T09:00:02.964Z,1007.82
2017-04-28T09:00:43.718Z,1007.79
2017-04-28T09:01:24.315Z,1007.82
2017-04-28T09:02:04.975Z,1007.83
2017-04-28T09:02:45.780Z,1007.84
2017-04-28T09:03:26.422Z,1007.83
2017-04-28T09:04:06.973Z,1007.78
2017-04-28T09:04:47.582Z,1007.8
2017-04-28T09:05:28.229Z,1007.77
2017-04-28T09:06:08.883Z,1007.83
2017-04-28T09:06:49.562Z,1007.82
2017-04-28T09:07:30.191Z,1007.83
2017-04-28T09:08:11.859Z,1007.85
2017-04-28T09:08:52.524Z,1007.85
2017-04-28T09:09:33.180Z,1007.89
2017-04-28T09:10:13.831Z,1007.89
2017-04-28T09:10:54.476Z,1007.98
2017-04-28T09:11:35.138Z,1007.98
2017-04-28T09:12:15.781Z,1007.95
2017-04-28T09:12:56.436Z,1007.98
2017-04-28T09:13:37.089Z,1007.95
2017-04-28T09:14:17.764Z,1007.93
2017-04-28T09:14:58.340Z,1007.94
2017-04-28T09:15:38.893Z,1007.94
2017-04-28T09:16:19.541Z,1007.92
2017-04-28T09:17:00.199Z,1007.93
2017-04-28T09:17:40.765Z,1007.96
2017-04-28T09:18:21.403Z,1007.95
2017-04-28T09:19:02.051Z,1007.92
2017-04-28T09:19:42.604Z,1007.94
2017-04-28T09:20:23.243Z,1007.94
2017-04-28T09:21:03.893Z,1007.94
2017-04-28T09:21:45.480Z,1007.9
2017-04-28T09:22:26.177Z,1007.96
2017-04-28T09:23:06.792Z,1007.91
2017-04-28T09:23:47.447Z,1007.9
2017-04-28T09:24:28.112Z,1007.91
2017-04-28T09:25:08.756Z,1007.96
2017-04-28T09:25:49.400Z,1007.91
2017-04-28T09:26:30.062Z,1007.9
2017-04-28T09:27:10.713Z,1007.92
2017-04-28T09:27:51.364Z,1007.9
2017-04-28T09:28:32.015Z,1007.92
2017-04-28T09:29:12.675Z,1007.9
2017-04-28T09:29:53.312Z,1007.89
2017-04-28T09:30:33.922Z,1007.95
2017-04-28T09:31:14.515Z,1007.91
2017-04-28T09:31:55.277Z,1007.93
2017-04-28T09:32:35.886Z,1007.89
2017-04-28T09:33:16.559Z,1007.94
2017-04-28T09:33:57.217Z,1007.93
2017-04-28T09:34:37.885Z,1007.92
2017-04-28T09:35:18.542Z,1007.96
2017-04-28T09:35:59.194Z,1007.95
2017-04-28T09:36:39.844Z,1007.94
2017-04-28T09:37:20.512Z,1007.92
2017-04-28T09:38:01.154Z,1007.99
2017-04-28T09:38:41.805Z,1008
2017-04-28T09:39:22.457Z,1008.01
2017-04-28T09:40:03.111Z,1007.95
2017-04-28T09:40:43.762Z,1007.94
2017-04-28T09:41:24.419Z,1007.95
2017-04-28T09:42:05.069Z,1007.93
2017-04-28T09:42:45.727Z,1007.91
2017-04-28T09:43:26.375Z,1007.92
2017-04-28T09:44:07.139Z,1007.95
2017-04-28T09:44:47.782Z,1007.91
2017-04-28T09:45:28.428Z,1007.83
2017-04-28T09:46:09.086Z,1007.82
2017-04-28T09:46:49.638Z,1007.8
2017-04-28T09:47:30.293Z,1007.8
2017-04-28T09:48:10.943Z,1007.76
2017-04-28T09:48:51.519Z,1007.79
2017-04-28T09:49:32.168Z,1007.76
2017-04-28T09:50:12.795Z,1007.75
2017-04-28T09:50:53.356Z,1007.72
2017-04-28T09:51:34.005Z,1007.73
2017-04-28T09:52:14.657Z,1007.65
2017-04-28T09:52:55.315Z,1007.69
2017-04-28T09:53:35.873Z,1007.66
2017-04-28T09:54:16.512Z,1007.65
2017-04-28T09:54:57.173Z,1007.62
2017-04-28T09:55:37.818Z,1007.66
2017-04-28T09:56:18.478Z,1007.7
2017-04-28T09:56:59.127Z,1007.67
2017-04-28T09:57:39.778Z,1007.65
2017-04-28T09:58:20.427Z,1007.58
2017-04-28T09:59:01.081Z,1007.59
2017-04-28T09:59:41.644Z,1007.61
2017-04-28T10:00:22.226Z,1007.65
2017-04-28T10:01:02.864Z,1007.62
2017-04-28T10:01:43.617Z,1007.61
2017-04-28T10:02:24.189Z,1007.57
2017-04-28T10:03:04.849Z,1007.59
2017-04-28T10:03:45.460Z,1007.65
2017-04-28T10:04:26.099Z,1007.6
2017-04-28T10:05:06.705Z,1007.64
2017-04-28T10:05:47.359Z,1007.63
2017-04-28T10:06:27.959Z,1007.61
2017-04-28T10:07:08.609Z,1007.61
2017-04-28T10:07:49.162Z,1007.57
2017-04-28T10:08:29.774Z,1007.56
2017-04-28T10:09:10.454Z,1007.61
2017-04-28T10:09:51.120Z,1007.61
2017-04-28T10:10:31.685Z,1007.65
2017-04-28T10:11:12.319Z,1007.64
2017-04-28T10:11:52.964Z,1007.63
2017-04-28T10:12:33.627Z,1007.64
2017-04-28T10:13:14.207Z,1007.67
2017-04-28T10:13:54.778Z,1007.63
2017-04-28T10:14:35.374Z,1007.62
2017-04-28T10:15:16.034Z,1007.62
2017-04-28T10:15:56.599Z,1007.63
2017-04-28T10:16:37.212Z,1007.6
2017-04-28T10:17:17.902Z,1007.61
2017-04-28T10:17:58.545Z,1007.65
2017-04-28T10:18:39.115Z,1007.64
2017-04-28T10:19:20.719Z,1007.6
2017-04-28T10:20:01.352Z,1007.64
2017-04-28T10:20:41.920Z,1007.64
2017-04-28T10:21:22.497Z,1007.66
2017-04-28T10:22:03.139Z,1007.64
2017-04-28T10:22:43.895Z,1007.63
2017-04-28T10:23:24.587Z,1007.68
2017-04-28T10:24:05.151Z,1007.69
2017-04-28T10:24:45.759Z,1007.69
2017-04-28T10:25:26.357Z,1007.7
2017-04-28T10:26:06.984Z,1007.71
2017-04-28T10:26:47.677Z,1007.72
2017-04-28T10:27:28.287Z,1007.76
2017-04-28T10:28:08.970Z,1007.77
2017-04-28T10:28:49.598Z,1007.74
2017-04-28T10:29:30.320Z,1007.68
2017-04-28T10:30:11.011Z,1007.66
2017-04-28T10:30:51.664Z,1007.67
2017-04-28T10:31:32.315Z,1007.69
2017-04-28T10:32:12.967Z,1007.63
2017-04-28T10:32:53.626Z,1007.73
2017-04-28T10:33:34.281Z,1007.69
2017-04-28T10:34:14.923Z,1007.68
2017-04-28T10:34:55.577Z,1007.7
2017-04-28T10:35:36.319Z,1007.69
2017-04-28T10:36:17.253Z,1007.7
2017-04-28T10:36:58.094Z,1007.74
2017-04-28T10:37:38.738Z,1007.72
2017-04-28T10:38:19.501Z,1007.7
2017-04-28T10:39:00.256Z,1007.67
2017-04-28T10:39:41.112Z,1007.68
2017-04-28T10:40:21.973Z,1007.69
2017-04-28T10:41:02.692Z,1007.67
2017-04-28T10:41:43.370Z,1007.7
2017-04-28T10:42:24.028Z,1007.71
2017-04-28T10:43:04.579Z,1007.72
2017-04-28T10:43:45.299Z,1007.72
2017-04-28T10:44:25.986Z,1007.67
2017-04-28T10:45:06.743Z,1007.67
2017-04-28T10:45:47.495Z,1007.7
2017-04-28T10:46:28.151Z,1007.67
2017-04-28T10:47:08.969Z,1007.68
2017-04-28T10:47:49.728Z,1007.7
2017-04-28T10:48:30.484Z,1007.69
2017-04-28T10:49:11.235Z,1007.72
2017-04-28T10:49:51.784Z,1007.71
2017-04-28T10:50:32.543Z,1007.7
2017-04-28T10:51:13.297Z,1007.7
2017-04-28T10:51:54.054Z,1007.7
2017-04-28T10:52:34.616Z,1007.72
2017-04-28T10:53:15.501Z,1007.73
2017-04-28T10:53:56.216Z,1007.75
2017-04-28T10:54:36.972Z,1007.73
2017-04-28T10:55:17.541Z,1007.72
2017-04-28T10:55:58.378Z,1007.75
2017-04-28T10:56:39.142Z,1007.75
2017-04-28T10:57:19.891Z,1007.7
2017-04-28T10:58:00.513Z,1007.72
2017-04-28T10:58:41.224Z,1007.71
2017-04-28T10:59:21.960Z,1007.73
2017-04-28T11:00:02.702Z,1007.78
2017-04-28T11:00:43.433Z,1007.73
2017-04-28T11:01:24.187Z,1007.69
2017-04-28T11:02:04.941Z,1007.73
2017-04-28T11:02:45.522Z,1007.74
2017-04-28T11:03:26.221Z,1007.77
2017-04-28T11:04:06.993Z,1007.8
2017-04-28T11:04:47.676Z,1007.8
2017-04-28T11:05:28.230Z,1007.78
2017-04-28T11:06:08.912Z,1007.77
2017-04-28T11:06:49.612Z,1007.79
2017-04-28T11:07:30.266Z,1007.78
2017-04-28T11:08:10.842Z,1007.78
2017-04-28T11:08:51.541Z,1007.76
2017-04-28T11:09:32.226Z,1007.78
2017-04-28T11:10:12.885Z,1007.82
2017-04-28T11:10:53.826Z,1007.86
2017-04-28T11:11:34.727Z,1007.82
2017-04-28T11:12:15.553Z,1007.81
2017-04-28T11:12:56.310Z,1007.84
2017-04-28T11:13:36.962Z,1007.83
2017-04-28T11:14:17.649Z,1007.73
2017-04-28T11:14:58.526Z,1007.78
2017-04-28T11:15:39.228Z,1007.83
2017-04-28T11:16:19.985Z,1007.81
2017-04-28T11:17:00.669Z,1007.78
2017-04-28T11:17:41.522Z,1007.75
2017-04-28T11:18:22.250Z,1007.77
2017-04-28T11:19:02.804Z,1007.74
2017-04-28T11:19:43.587Z,1007.79
2017-04-28T11:20:24.517Z,1007.74
2017-04-28T11:21:05.270Z,1007.72
2017-04-28T11:21:45.923Z,1007.79
2017-04-28T11:22:26.674Z,1007.8
2017-04-28T11:23:07.446Z,1007.72
2017-04-28T11:23:48.196Z,1007.72
2017-04-28T11:24:29.077Z,1007.7
2017-04-28T11:25:09.902Z,1007.75
2017-04-28T11:25:50.560Z,1007.75
2017-04-28T11:26:31.517Z,1007.68
2017-04-28T11:27:12.291Z,1007.68
2017-04-28T11:27:53.065Z,1007.68
2017-04-28T11:28:33.884Z,1007.64
2017-04-28T11:29:14.638Z,1007.64
2017-04-28T11:29:55.326Z,1007.58
2017-04-28T11:30:36.121Z,1007.59
2017-04-28T11:31:16.936Z,1007.65
2017-04-28T11:31:57.667Z,1007.57
2017-04-28T11:32:38.479Z,1007.58
2017-04-28T11:33:22.107Z,1007.66
2017-04-28T11:34:02.884Z,1007.59
2017-04-28T11:34:43.584Z,1007.6
2017-04-28T11:35:24.471Z,1007.63
2017-04-28T11:36:05.317Z,1007.53
2017-04-28T11:36:46.123Z,1007.56
2017-04-28T11:37:27.093Z,1007.51
2017-04-28T11:38:07.838Z,1007.48
2017-04-28T11:38:48.597Z,1007.44
2017-04-28T11:39:29.351Z,1007.4
2017-04-28T11:40:10.029Z,1007.42
2017-04-28T11:40:50.858Z,1007.3
2017-04-28T11:41:31.629Z,1007.26
2017-04-28T11:42:12.369Z,1007.26
2017-04-28T11:42:53.025Z,1007.26
2017-04-28T11:43:33.780Z,1007.26
2017-04-28T11:44:14.535Z,1007.3
2017-04-28T11:44:55.114Z,1007.29
2017-04-28T11:45:35.733Z,1007.28
2017-04-28T11:46:16.532Z,1007.32
2017-04-28T11:46:57.472Z,1007.31
2017-04-28T11:47:38.213Z,1007.3
2017-04-28T11:48:18.754Z,1007.34
2017-04-28T11:48:59.367Z,1007.33
2017-04-28T11:49:39.959Z,1007.38
2017-04-28T11:50:20.609Z,1007.31
2017-04-28T11:51:01.177Z,1007.28
2017-04-28T11:51:41.972Z,1007.2
2017-04-28T11:52:22.566Z,1007.29
2017-04-28T11:53:03.219Z,1007.28
2017-04-28T11:53:43.791Z,1007.29
2017-04-28T11:54:24.361Z,1007.29
2017-04-28T11:55:05.010Z,1007.33
2017-04-28T11:55:45.727Z,1007.32
2017-04-28T11:56:26.295Z,1007.34
2017-04-28T11:57:06.981Z,1007.31
2017-04-28T11:57:47.694Z,1007.32
2017-04-28T11:58:28.326Z,1007.35
2017-04-28T11:59:08.981Z,1007.29
2017-04-28T11:59:49.609Z,1007.29
2017-04-28T12:00:30.287Z,1007.34
2017-04-28T12:01:10.939Z,1007.37
2017-04-28T12:01:51.592Z,1007.35
2017-04-28T12:02:32.246Z,1007.29
2017-04-28T12:03:12.893Z,1007.31
2017-04-28T12:03:53.554Z,1007.32
2017-04-28T12:04:34.197Z,1007.36
2017-04-28T12:05:14.758Z,1007.32
2017-04-28T12:05:55.357Z,1007.37
2017-04-28T12:06:35.956Z,1007.37
2017-04-28T12:07:16.617Z,1007.39
2017-04-28T12:07:57.167Z,1007.4
2017-04-28T12:08:37.759Z,1007.38
2017-04-28T12:09:18.365Z,1007.35
2017-04-28T12:09:59.017Z,1007.35
2017-04-28T12:10:39.589Z,1007.34
2017-04-28T12:11:20.176Z,1007.34
2017-04-28T12:12:00.803Z,1007.3
2017-04-28T12:12:41.418Z,1007.33
2017-04-28T12:13:22.049Z,1007.32
2017-04-28T12:14:02.676Z,1007.4
2017-04-28T12:14:43.273Z,1007.38
2017-04-28T12:15:23.934Z,1007.4
2017-04-28T12:16:04.504Z,1007.39
2017-04-28T12:16:45.082Z,1007.38
2017-04-28T12:17:25.692Z,1007.35
2017-04-28T12:18:06.335Z,1007.3
2017-04-28T12:18:46.920Z,1007.27
2017-04-28T12:19:27.589Z,1007.29
2017-04-28T12:20:08.204Z,1007.29
2017-04-28T12:20:48.844Z,1007.27
2017-04-28T12:21:29.509Z,1007.22
2017-04-28T12:22:10.150Z,1007.24
2017-04-28T12:22:50.923Z,1007.23
2017-04-28T12:23:31.645Z,1007.21
2017-04-28T12:24:13.241Z,1007.24
2017-04-28T12:24:53.894Z,1007.26
2017-04-28T12:25:34.547Z,1007.25
2017-04-28T12:26:15.112Z,1007.28
2017-04-28T12:26:55.756Z,1007.22
2017-04-28T12:27:36.404Z,1007.26
2017-04-28T12:28:16.980Z,1007.29
2017-04-28T12:28:57.960Z,1007.24
2017-04-28T12:29:38.670Z,1007.25
2017-04-28T12:30:19.232Z,1007.26
2017-04-28T12:30:59.875Z,1007.35
2017-04-28T12:31:40.524Z,1007.39
2017-04-28T12:32:21.187Z,1007.4
2017-04-28T12:33:01.854Z,1007.37
2017-04-28T12:33:42.492Z,1007.37
2017-04-28T12:34:23.144Z,1007.43
2017-04-28T12:35:03.810Z,1007.42
2017-04-28T12:35:44.462Z,1007.42
2017-04-28T12:36:25.015Z,1007.48
2017-04-28T12:37:05.689Z,1007.44
2017-04-28T12:37:46.407Z,1007.54
2017-04-28T12:38:27.005Z,1007.46
2017-04-28T12:39:07.612Z,1007.48
2017-04-28T12:39:48.262Z,1007.52
2017-04-28T12:40:28.916Z,1007.55
2017-04-28T12:41:09.587Z,1007.55
2017-04-28T12:41:50.224Z,1007.53
2017-04-28T12:42:30.876Z,1007.47
2017-04-28T12:43:11.528Z,1007.46
2017-04-28T12:43:52.180Z,1007.43
2017-04-28T12:44:32.833Z,1007.42
2017-04-28T12:45:13.391Z,1007.43
2017-04-28T12:45:54.002Z,1007.39
2017-04-28T12:46:35.613Z,1007.34
2017-04-28T12:47:16.263Z,1007.32
2017-04-28T12:47:56.894Z,1007.33
2017-04-28T12:48:37.517Z,1007.31
2017-04-28T12:49:18.121Z,1007.34
2017-04-28T12:49:58.773Z,1007.37
2017-04-28T12:50:39.327Z,1007.36
2017-04-28T12:51:19.976Z,1007.34
2017-04-28T12:52:00.627Z,1007.39
2017-04-28T12:52:41.207Z,1007.31
2017-04-28T12:53:21.831Z,1007.38
2017-04-28T12:54:02.478Z,1007.36
2017-04-28T12:54:43.052Z,1007.34
2017-04-28T12:55:23.696Z,1007.31
2017-04-28T12:56:04.341Z,1007.3
2017-04-28T12:56:44.998Z,1007.31
2017-04-28T12:57:25.670Z,1007.27
2017-04-28T12:58:06.297Z,1007.34
2017-04-28T12:58:46.955Z,1007.33
2017-04-28T12:59:27.611Z,1007.32
2017-04-28T13:00:08.328Z,1007.35
2017-04-28T13:00:48.909Z,1007.36
2017-04-28T13:01:29.498Z,1007.34
2017-04-28T13:02:10.218Z,1007.33
2017-04-28T13:02:50.798Z,1007.37
2017-04-28T13:03:31.382Z,1007.33
2017-04-28T13:04:12.070Z,1007.34
2017-04-28T13:04:52.728Z,1007.34
2017-04-28T13:05:33.381Z,1007.35
2017-04-28T13:06:14.025Z,1007.38
2017-04-28T13:06:54.693Z,1007.38
2017-04-28T13:07:35.336Z,1007.38
2017-04-28T13:08:15.991Z,1007.34
2017-04-28T13:08:56.645Z,1007.36
2017-04-28T13:09:37.297Z,1007.4
2017-04-28T13:10:17.946Z,1007.4
2017-04-28T13:10:58.602Z,1007.34
2017-04-28T13:11:39.182Z,1007.33
2017-04-28T13:12:19.807Z,1007.37
2017-04-28T13:13:00.457Z,1007.33
2017-04-28T13:13:41.107Z,1007.37
2017-04-28T13:14:21.760Z,1007.31
2017-04-28T13:15:02.335Z,1007.34
2017-04-28T13:15:42.913Z,1007.33
2017-04-28T13:16:23.505Z,1007.33
2017-04-28T13:17:04.168Z,1007.33
2017-04-28T13:17:44.751Z,1007.3
2017-04-28T13:18:25.427Z,1007.31
2017-04-28T13:19:06.020Z,1007.3
2017-04-28T13:19:46.678Z,1007.26
2017-04-28T13:20:27.240Z,1007.32
2017-04-28T13:21:07.912Z,1007.31
2017-04-28T13:21:48.500Z,1007.26
2017-04-28T13:22:29.147Z,1007.3
2017-04-28T13:23:09.725Z,1007.3
2017-04-28T13:23:50.406Z,1007.3
2017-04-28T13:24:31.008Z,1007.3
2017-04-28T13:25:11.759Z,1007.26
2017-04-28T13:25:52.417Z,1007.32
2017-04-28T13:26:33.071Z,1007.32
2017-04-28T13:27:13.720Z,1007.27
2017-04-28T13:27:54.374Z,1007.23
2017-04-28T13:28:36.793Z,1007.27
2017-04-28T13:29:17.418Z,1007.31
2017-04-28T13:29:58.069Z,1007.25
2017-04-28T13:30:38.636Z,1007.27
2017-04-28T13:31:19.275Z,1007.21
2017-04-28T13:32:00.034Z,1007.17
2017-04-28T13:32:40.618Z,1007.24
2017-04-28T13:33:21.242Z,1007.24
2017-04-28T13:34:01.888Z,1007.22
2017-04-28T13:34:42.466Z,1007.16
2017-04-28T13:35:23.111Z,1007.14
2017-04-28T13:36:03.744Z,1007.14
2017-04-28T13:36:44.315Z,1007.12
2017-04-28T13:37:24.929Z,1007.15
2017-04-28T13:38:05.601Z,1007.12
2017-04-28T13:38:46.256Z,1007.13
2017-04-28T13:39:26.828Z,1007.14
2017-04-28T13:40:07.415Z,1007.15
2017-04-28T13:40:48.008Z,1007.21
2017-04-28T13:41:28.664Z,1007.19
2017-04-28T13:42:09.323Z,1007.18
2017-04-28T13:42:49.970Z,1007.17
2017-04-28T13:43:30.611Z,1007.22
2017-04-28T13:44:11.377Z,1007.18
2017-04-28T13:44:52.031Z,1007.23
2017-04-28T13:45:32.679Z,1007.23
2017-04-28T13:46:13.326Z,1007.19
2017-04-28T13:46:53.988Z,1007.26
2017-04-28T13:47:34.636Z,1007.27
2017-04-28T13:48:15.217Z,1007.28
2017-04-28T13:48:55.869Z,1007.27
2017-04-28T13:49:36.487Z,1007.25
2017-04-28T13:50:17.123Z,1007.25
2017-04-28T13:50:57.810Z,1007.26
2017-04-28T13:51:38.452Z,1007.22
2017-04-28T13:52:19.109Z,1007.23
2017-04-28T13:52:59.757Z,1007.25
2017-04-28T13:53:40.413Z,1007.2
2017-04-28T13:54:21.063Z,1007.24
2017-04-28T13:55:01.824Z,1007.24
2017-04-28T13:55:42.805Z,1007.28
2017-04-28T13:56:23.437Z,1007.3
2017-04-28T13:57:04.085Z,1007.33
2017-04-28T13:57:44.742Z,1007.29
2017-04-28T13:58:25.504Z,1007.29
2017-04-28T13:59:06.146Z,1007.31
2017-04-28T13:59:46.802Z,1007.39
2017-04-28T14:00:27.379Z,1007.31
2017-04-28T14:01:08.007Z,1007.37
2017-04-28T14:01:48.658Z,1007.38
2017-04-28T14:02:29.281Z,1007.28
2017-04-28T14:03:09.860Z,1007.28
2017-04-28T14:03:50.516Z,1007.3
2017-04-28T14:04:31.094Z,1007.31
2017-04-28T14:05:11.716Z,1007.32
2017-04-28T14:05:52.373Z,1007.31
2017-04-28T14:06:32.955Z,1007.28
2017-04-28T14:07:13.634Z,1007.28
2017-04-28T14:07:54.334Z,1007.28
2017-04-28T14:08:34.992Z,1007.32
2017-04-28T14:09:15.558Z,1007.28
2017-04-28T14:09:56.147Z,1007.26
2017-04-28T14:10:37.772Z,1007.24
2017-04-28T14:11:18.338Z,1007.3
2017-04-28T14:11:58.973Z,1007.32
2017-04-28T14:12:39.548Z,1007.3
2017-04-28T14:13:20.126Z,1007.27
2017-04-28T14:14:00.824Z,1007.26
2017-04-28T14:14:41.473Z,1007.23
2017-04-28T14:15:22.057Z,1007.24
2017-04-28T14:16:02.769Z,1007.23
2017-04-28T14:16:43.438Z,1007.24
2017-04-28T14:17:24.093Z,1007.22
2017-04-28T14:18:04.748Z,1007.27
2017-04-28T14:18:45.400Z,1007.25
2017-04-28T14:19:26.040Z,1007.26
2017-04-28T14:20:06.724Z,1007.24
2017-04-28T14:20:47.358Z,1007.27
2017-04-28T14:21:27.963Z,1007.3
2017-04-28T14:22:08.616Z,1007.3
2017-04-28T14:22:49.206Z,1007.35
2017-04-28T14:23:29.866Z,1007.35
2017-04-28T14:24:10.435Z,1007.36
2017-04-28T14:24:51.014Z,1007.33
2017-04-28T14:25:31.610Z,1007.34
2017-04-28T14:26:13.288Z,1007.35
2017-04-28T14:26:53.947Z,1007.37
2017-04-28T14:27:34.600Z,1007.4
2017-04-28T14:28:15.261Z,1007.46
2017-04-28T14:28:55.905Z,1007.42
2017-04-28T14:29:36.562Z,1007.44
2017-04-28T14:30:17.214Z,1007.43
2017-04-28T14:30:57.866Z,1007.39
2017-04-28T14:31:38.695Z,1007.41
2017-04-28T14:32:19.346Z,1007.37
2017-04-28T14:33:00.041Z,1007.41
2017-04-28T14:33:40.590Z,1007.41
2017-04-28T14:34:21.241Z,1007.41
2017-04-28T14:35:01.881Z,1007.47
2017-04-28T14:35:42.538Z,1007.43
2017-04-28T14:36:23.115Z,1007.46
2017-04-28T14:37:03.734Z,1007.44
2017-04-28T14:37:44.390Z,1007.46
2017-04-28T14:38:24.959Z,1007.53
2017-04-28T14:39:05.700Z,1007.49
2017-04-28T14:39:46.349Z,1007.46
2017-04-28T14:40:27.005Z,1007.5
2017-04-28T14:41:07.613Z,1007.52
2017-04-28T14:41:48.195Z,1007.54
2017-04-28T14:42:28.756Z,1007.52
2017-04-28T14:43:09.326Z,1007.5
2017-04-28T14:43:49.921Z,1007.49
2017-04-28T14:44:30.611Z,1007.49